createdAt,value
2018-03-06T00:02:15.241Z,134.17
2018-03-06T00:04:42.979Z,134.83
2018-03-06T00:07:10.905Z,125.27
2018-03-06T00:09:38.595Z,128.77
2018-03-06T00:12:07.096Z,129.17
2018-03-06T00:14:34.795Z,136.37
2018-03-06T00:17:02.444Z,130.80
2018-03-06T00:19:30.152Z,136.40
2018-03-06T00:21:58.611Z,134.07
2018-03-06T00:24:26.276Z,145.73
2018-03-06T00:26:54.764Z,134.87
2018-03-06T00:29:23.262Z,150.13
2018-03-06T00:31:50.915Z,136.60
2018-03-06T00:34:19.404Z,144.33
2018-03-06T00:36:47.122Z,122.83
2018-03-06T00:39:14.768Z,133.60
2018-03-06T00:41:42.465Z,140.83
2018-03-06T00:44:10.146Z,132.77
2018-03-06T00:46:37.814Z,133.20
2018-03-06T00:49:06.149Z,131.10
2018-03-06T00:51:34.430Z,135.93
2018-03-06T00:54:03.295Z,131.60
2018-03-06T00:56:32.038Z,138.17
2018-03-06T00:58:59.712Z,134.63
2018-03-06T01:01:27.356Z,129.97
2018-03-06T01:03:55.049Z,145.10
2018-03-06T01:06:22.752Z,120.33
2018-03-06T01:08:50.397Z,136.03
2018-03-06T01:11:18.093Z,134.27
2018-03-06T01:13:46.544Z,134.30
2018-03-06T01:16:14.984Z,131.73
2018-03-06T01:18:42.663Z,123.67
2018-03-06T01:21:10.411Z,128.63
2018-03-06T01:23:38.076Z,128.57
2018-03-06T01:26:05.763Z,127.47
2018-03-06T01:28:33.527Z,140.97
2018-03-06T01:31:01.184Z,131.67
2018-03-06T01:33:28.873Z,122.60
2018-03-06T01:35:56.574Z,127.93
2018-03-06T01:38:24.361Z,134.60
2018-03-06T01:40:52.073Z,134.33
2018-03-06T01:43:20.525Z,150.13
2018-03-06T01:45:48.971Z,133.87
2018-03-06T01:48:16.787Z,136.67
2018-03-06T01:50:45.236Z,138.43
2018-03-06T01:53:12.902Z,145.77
2018-03-06T01:55:41.389Z,147.97
2018-03-06T01:58:09.915Z,131.30
2018-03-06T02:00:37.577Z,139.70
2018-03-06T02:03:05.266Z,131.87
2018-03-06T02:05:32.977Z,150.20
2018-03-06T02:08:00.669Z,136.80
2018-03-06T02:10:28.453Z,135.87
2018-03-06T02:12:56.153Z,138.53
2018-03-06T02:15:23.828Z,134.17
2018-03-06T02:17:51.524Z,141.53
2018-03-06T02:20:19.260Z,139.10
2018-03-06T02:22:46.919Z,125.03
2018-03-06T02:25:14.640Z,135.07
2018-03-06T02:27:43.185Z,155.83
2018-03-06T02:30:10.938Z,118.90
2018-03-06T02:32:38.643Z,139.47
2018-03-06T02:35:06.345Z,142.57
2018-03-06T02:37:34.008Z,137.50
2018-03-06T02:40:01.746Z,141.97
2018-03-06T02:42:30.188Z,128.97
2018-03-06T02:44:57.853Z,133.40
2018-03-06T02:47:25.567Z,128.77
2018-03-06T02:49:53.272Z,127.40
2018-03-06T02:52:20.936Z,145.03
2018-03-06T02:54:48.622Z,136.53
2018-03-06T02:57:16.321Z,132.33
2018-03-06T02:59:43.992Z,129.80
2018-03-06T03:02:11.727Z,149.63
2018-03-06T03:04:39.419Z,124.77
2018-03-06T03:07:07.136Z,153.00
2018-03-06T03:09:34.939Z,135.17
2018-03-06T03:12:02.635Z,144.17
2018-03-06T03:14:31.069Z,148.53
2018-03-06T03:16:58.748Z,157.23
2018-03-06T03:19:27.042Z,141.07
2018-03-06T03:21:55.032Z,150.77
2018-03-06T03:24:23.717Z,145.97
2018-03-06T03:26:52.955Z,155.67
2018-03-06T03:29:20.612Z,139.57
2018-03-06T03:31:48.291Z,135.43
2018-03-06T03:34:15.995Z,139.80
2018-03-06T03:36:43.660Z,142.67
2018-03-06T03:39:12.116Z,151.90
2018-03-06T03:41:39.817Z,127.57
2018-03-06T03:44:07.467Z,136.37
2018-03-06T03:46:35.186Z,145.53
2018-03-06T03:49:03.671Z,156.40
2018-03-06T03:51:31.357Z,141.17
2018-03-06T03:53:59.848Z,143.90
2018-03-06T03:56:27.548Z,140.43
2018-03-06T03:58:55.245Z,147.87
2018-03-06T04:01:23.713Z,138.43
2018-03-06T04:03:51.388Z,141.83
2018-03-06T04:06:19.828Z,142.17
2018-03-06T04:08:47.563Z,138.03
2018-03-06T04:11:15.252Z,143.03
2018-03-06T04:13:42.909Z,129.40
2018-03-06T04:16:10.612Z,132.17
2018-03-06T04:18:38.296Z,129.73
2018-03-06T04:21:05.976Z,139.33
2018-03-06T04:23:33.684Z,132.97
2018-03-06T04:26:02.184Z,135.87
2018-03-06T04:28:30.720Z,131.37
2018-03-06T04:30:58.425Z,141.53
2018-03-06T04:33:26.894Z,131.50
2018-03-06T04:35:55.340Z,146.37
2018-03-06T04:38:23.092Z,136.77
2018-03-06T04:40:50.787Z,139.00
2018-03-06T04:43:18.423Z,147.67
2018-03-06T04:45:46.116Z,140.67
2018-03-06T04:48:13.806Z,135.80
2018-03-06T04:50:41.477Z,152.80
2018-03-06T04:53:09.186Z,142.57
2018-03-06T04:55:36.955Z,148.33
2018-03-06T04:58:04.625Z,123.20
2018-03-06T05:00:33.158Z,133.53
2018-03-06T05:03:00.960Z,147.13
2018-03-06T05:05:28.626Z,154.63
2018-03-06T05:07:57.118Z,155.73
2018-03-06T05:10:25.608Z,131.87
2018-03-06T05:12:54.073Z,143.57
2018-03-06T05:15:21.825Z,135.37
2018-03-06T05:17:49.524Z,135.87
2018-03-06T05:20:18.085Z,159.57
2018-03-06T05:22:45.840Z,142.80
2018-03-06T05:25:14.335Z,150.60
2018-03-06T05:27:41.992Z,142.37
2018-03-06T05:30:09.704Z,149.40
2018-03-06T05:32:37.391Z,139.63
2018-03-06T05:35:05.999Z,131.47
2018-03-06T05:37:33.720Z,152.07
2018-03-06T05:40:01.408Z,144.97
2018-03-06T05:42:29.920Z,134.13
2018-03-06T05:44:57.606Z,144.17
2018-03-06T05:47:25.312Z,148.60
2018-03-06T05:49:52.998Z,138.23
2018-03-06T05:52:20.708Z,137.13
2018-03-06T05:54:48.383Z,151.23
2018-03-06T05:57:16.813Z,128.60
2018-03-06T05:59:44.490Z,140.43
2018-03-06T06:02:12.176Z,145.57
2018-03-06T06:04:40.672Z,138.43
2018-03-06T06:07:08.432Z,142.13
2018-03-06T06:09:36.887Z,132.10
2018-03-06T06:12:05.376Z,140.70
2018-03-06T06:14:33.161Z,141.43
2018-03-06T06:17:00.874Z,151.63
2018-03-06T06:19:28.519Z,168.83
2018-03-06T06:21:56.236Z,146.83
2018-03-06T06:24:23.952Z,143.23
2018-03-06T06:26:51.600Z,144.57
2018-03-06T06:29:20.068Z,134.53
2018-03-06T06:31:47.757Z,134.03
2018-03-06T06:34:15.501Z,146.53
2018-03-06T06:36:43.267Z,137.73
2018-03-06T06:39:11.036Z,150.60
2018-03-06T06:41:38.709Z,146.83
2018-03-06T06:44:06.412Z,167.27
2018-03-06T06:46:34.252Z,153.53
2018-03-06T06:49:01.942Z,158.23
2018-03-06T06:51:29.747Z,146.23
2018-03-06T06:53:57.461Z,143.53
2018-03-06T06:56:25.147Z,138.17
2018-03-06T06:58:53.606Z,146.67
2018-03-06T07:01:21.271Z,156.83
2018-03-06T07:03:49.693Z,152.47
2018-03-06T07:06:17.440Z,152.40
2018-03-06T07:08:45.152Z,159.27
2018-03-06T07:11:12.838Z,161.60
2018-03-06T07:13:41.314Z,151.47
2018-03-06T07:16:09.796Z,158.63
2018-03-06T07:18:38.233Z,145.67
2018-03-06T07:21:05.946Z,147.87
2018-03-06T07:23:34.389Z,145.33
2018-03-06T07:26:02.051Z,131.97
2018-03-06T07:28:29.756Z,144.43
2018-03-06T07:30:57.434Z,148.23
2018-03-06T07:33:25.097Z,166.53
2018-03-06T07:35:52.850Z,153.77
2018-03-06T07:38:20.589Z,143.03
2018-03-06T07:40:49.012Z,156.33
2018-03-06T07:43:16.730Z,148.23
2018-03-06T07:45:44.420Z,150.67
2018-03-06T07:48:12.056Z,172.00
2018-03-06T07:50:39.882Z,173.37
2018-03-06T07:53:07.631Z,153.60
2018-03-06T07:55:35.354Z,160.50
2018-03-06T07:58:03.892Z,162.53
2018-03-06T08:00:31.631Z,161.37
2018-03-06T08:02:59.263Z,149.77
2018-03-06T08:05:27.985Z,165.67
2018-03-06T08:07:55.740Z,149.27
2018-03-06T08:10:23.404Z,168.60
2018-03-06T08:12:51.089Z,180.07
2018-03-06T08:15:18.817Z,158.07
2018-03-06T08:17:46.490Z,154.87
2018-03-06T08:20:14.168Z,148.73
2018-03-06T08:22:41.887Z,147.97
2018-03-06T08:25:09.560Z,163.60
2018-03-06T08:27:37.285Z,163.17
2018-03-06T08:30:05.788Z,169.67
2018-03-06T08:32:33.458Z,146.47
2018-03-06T08:35:01.151Z,157.30
2018-03-06T08:37:29.706Z,150.13
2018-03-06T08:39:57.354Z,157.93
2018-03-06T08:42:25.837Z,161.27
2018-03-06T08:44:53.588Z,155.80
2018-03-06T08:47:21.285Z,164.77
2018-03-06T08:49:48.988Z,148.90
2018-03-06T08:52:16.706Z,142.10
2018-03-06T08:54:44.375Z,138.50
2018-03-06T08:57:12.098Z,148.43
2018-03-06T08:59:39.751Z,154.47
2018-03-06T09:02:08.455Z,153.50
2018-03-06T09:04:36.204Z,165.27
2018-03-06T09:07:04.264Z,165.00
2018-03-06T09:09:31.955Z,167.07
2018-03-06T09:11:59.674Z,154.57
2018-03-06T09:14:27.350Z,162.60
2018-03-06T09:16:55.004Z,160.50
2018-03-06T09:19:22.765Z,175.10
2018-03-06T09:21:50.440Z,154.00
2018-03-06T09:24:18.174Z,187.10
2018-03-06T09:26:45.980Z,172.37
2018-03-06T09:29:13.635Z,175.27
2018-03-06T09:31:42.018Z,172.27
2018-03-06T09:34:09.730Z,182.90
2018-03-06T09:36:37.400Z,179.53
2018-03-06T09:39:05.203Z,165.77
2018-03-06T09:41:32.902Z,156.33
2018-03-06T09:44:01.533Z,179.27
2018-03-06T09:46:29.197Z,168.03
2018-03-06T09:48:56.911Z,165.40
2018-03-06T09:51:25.371Z,173.63
2018-03-06T09:53:53.042Z,158.03
2018-03-06T09:56:21.520Z,169.40
2018-03-06T09:58:49.280Z,161.37
2018-03-06T10:01:16.968Z,163.43
2018-03-06T10:03:44.642Z,167.93
2018-03-06T10:06:12.348Z,171.50
2018-03-06T10:08:40.058Z,155.60
2018-03-06T10:11:07.786Z,145.43
2018-03-06T10:13:35.459Z,156.70
2018-03-06T10:16:03.928Z,158.87
2018-03-06T10:18:31.620Z,157.23
2018-03-06T10:20:59.292Z,172.27
2018-03-06T10:23:26.935Z,155.10
2018-03-06T10:25:54.677Z,153.83
2018-03-06T10:28:23.127Z,169.07
2018-03-06T10:30:50.920Z,166.17
2018-03-06T10:33:19.390Z,156.53
2018-03-06T10:35:47.070Z,158.20
2018-03-06T10:38:16.341Z,169.57
2018-03-06T10:40:44.055Z,179.87
2018-03-06T10:43:11.801Z,158.73
2018-03-06T10:45:39.486Z,176.33
2018-03-06T10:48:07.242Z,182.43
2018-03-06T10:50:34.908Z,171.43
2018-03-06T10:53:02.537Z,171.10
2018-03-06T10:55:32.084Z,175.80
2018-03-06T10:57:59.756Z,188.93
2018-03-06T11:00:33.137Z,184.60
2018-03-06T11:03:00.879Z,177.90
2018-03-06T11:05:28.572Z,168.13
2018-03-06T11:07:56.400Z,175.40
2018-03-06T11:10:24.164Z,187.70
2018-03-06T11:12:51.867Z,194.27
2018-03-06T11:15:19.720Z,194.70
2018-03-06T11:17:47.412Z,172.93
2018-03-06T11:20:15.152Z,188.80
2018-03-06T11:22:42.830Z,184.53
2018-03-06T11:25:10.726Z,181.00
2018-03-06T11:27:38.407Z,186.60
2018-03-06T11:30:06.143Z,186.23
2018-03-06T11:32:33.884Z,197.07
2018-03-06T11:35:01.580Z,186.03
2018-03-06T11:37:29.333Z,197.13
2018-03-06T11:39:57.011Z,178.03
2018-03-06T11:42:24.732Z,195.57
2018-03-06T11:44:53.208Z,180.50
2018-03-06T11:47:21.735Z,190.90
2018-03-06T11:49:49.445Z,187.97
2018-03-06T11:52:17.163Z,185.63
2018-03-06T11:54:44.848Z,194.20
2018-03-06T11:57:12.535Z,202.00
2018-03-06T11:59:40.200Z,204.83
2018-03-06T12:02:08.879Z,184.87
2018-03-06T12:04:36.605Z,209.93
2018-03-06T12:07:04.348Z,177.63
2018-03-06T12:09:32.079Z,185.20
2018-03-06T12:12:00.515Z,206.97
2018-03-06T12:14:28.224Z,213.00
2018-03-06T12:16:55.937Z,199.57
2018-03-06T12:19:24.393Z,200.77
2018-03-06T12:21:52.096Z,202.40
2018-03-06T12:24:19.807Z,215.57
2018-03-06T12:26:47.493Z,204.97
2018-03-06T12:29:15.177Z,213.50
2018-03-06T12:31:42.988Z,216.03
2018-03-06T12:34:10.657Z,213.73
2018-03-06T12:36:38.430Z,225.70
2018-03-06T12:39:06.208Z,199.27
2018-03-06T12:41:33.872Z,204.97
2018-03-06T12:44:01.636Z,197.30
2018-03-06T12:46:29.390Z,206.07
2018-03-06T12:48:57.055Z,202.83
2018-03-06T12:51:24.743Z,205.73
2018-03-06T12:53:53.281Z,198.60
2018-03-06T12:56:20.947Z,204.63
2018-03-06T12:58:48.671Z,216.63
2018-03-06T13:01:16.412Z,196.03
2018-03-06T13:03:44.866Z,187.53
2018-03-06T13:06:12.542Z,197.57
2018-03-06T13:08:40.288Z,199.80
2018-03-06T13:11:07.978Z,189.30
2018-03-06T13:13:36.422Z,190.50
2018-03-06T13:16:04.162Z,199.07
2018-03-06T13:18:31.804Z,176.57
2018-03-06T13:20:59.459Z,196.63
2018-03-06T13:23:27.239Z,183.20
2018-03-06T13:25:54.959Z,181.93
2018-03-06T13:28:23.490Z,182.90
2018-03-06T13:30:51.205Z,171.53
2018-03-06T13:33:19.752Z,176.03
2018-03-06T13:35:47.420Z,176.57
2018-03-06T13:38:15.137Z,175.00
2018-03-06T13:40:42.808Z,174.47
2018-03-06T13:43:10.485Z,180.13
2018-03-06T13:45:38.180Z,179.93
2018-03-06T13:48:05.935Z,183.33
2018-03-06T13:50:33.600Z,179.63
2018-03-06T13:53:01.318Z,188.63
2018-03-06T13:55:28.948Z,166.67
2018-03-06T13:57:56.655Z,182.73
2018-03-06T14:00:25.339Z,180.13
2018-03-06T14:02:53.025Z,182.93
2018-03-06T14:05:20.735Z,171.73
2018-03-06T14:07:48.432Z,180.03
2018-03-06T14:10:16.181Z,182.67
2018-03-06T14:12:43.934Z,174.87
2018-03-06T14:15:12.090Z,175.47
2018-03-06T14:17:39.756Z,180.53
2018-03-06T14:20:07.491Z,169.83
2018-03-06T14:22:35.193Z,164.53
2018-03-06T14:25:02.832Z,186.47
2018-03-06T14:27:31.379Z,165.60
2018-03-06T14:29:59.843Z,190.80
2018-03-06T14:32:27.575Z,169.80
2018-03-06T14:34:55.322Z,162.63
2018-03-06T14:37:23.080Z,178.90
2018-03-06T14:39:50.743Z,166.13
2018-03-06T14:42:18.438Z,160.37
2018-03-06T14:44:46.920Z,174.47
2018-03-06T14:47:14.677Z,164.90
2018-03-06T14:49:42.365Z,163.63
2018-03-06T14:52:10.836Z,164.20
2018-03-06T14:54:38.495Z,168.30
2018-03-06T14:57:06.253Z,165.13
2018-03-06T14:59:33.929Z,180.37
2018-03-06T15:02:02.554Z,173.73
2018-03-06T15:04:30.240Z,170.37
2018-03-06T15:06:57.991Z,158.33
2018-03-06T15:09:25.688Z,173.23
2018-03-06T15:11:54.161Z,168.80
2018-03-06T15:14:21.864Z,178.53
2018-03-06T15:16:49.529Z,170.97
2018-03-06T15:19:17.289Z,170.80
2018-03-06T15:21:44.961Z,163.27
2018-03-06T15:24:12.635Z,160.57
2018-03-06T15:26:40.357Z,172.90
2018-03-06T15:29:08.100Z,175.63
2018-03-06T15:31:36.502Z,164.70
2018-03-06T15:34:05.204Z,189.13
2018-03-06T15:36:32.903Z,177.43
2018-03-06T15:39:00.571Z,166.80
2018-03-06T15:41:29.040Z,167.30
2018-03-06T15:43:57.528Z,186.77
2018-03-06T15:46:26.016Z,175.73
2018-03-06T15:48:54.544Z,161.10
2018-03-06T15:51:22.240Z,181.33
2018-03-06T15:53:50.016Z,168.87
2018-03-06T15:56:17.700Z,181.07
2018-03-06T15:58:46.223Z,172.67
2018-03-06T16:01:13.903Z,177.50
2018-03-06T16:03:41.701Z,184.93
2018-03-06T16:06:10.172Z,173.10
2018-03-06T16:08:38.625Z,184.40
2018-03-06T16:11:06.404Z,178.63
2018-03-06T16:13:34.143Z,184.00
2018-03-06T16:16:01.811Z,178.87
2018-03-06T16:18:29.681Z,190.87
2018-03-06T16:20:57.441Z,179.13
2018-03-06T16:23:25.155Z,172.37
2018-03-06T16:25:52.895Z,181.17
2018-03-06T16:28:21.373Z,181.50
2018-03-06T16:30:49.781Z,176.87
2018-03-06T16:33:17.545Z,177.23
2018-03-06T16:35:45.261Z,170.20
2018-03-06T16:38:12.912Z,170.10
2018-03-06T16:40:40.619Z,187.37
2018-03-06T16:43:08.365Z,172.50
2018-03-06T16:45:36.041Z,176.10
2018-03-06T16:48:03.788Z,170.80
2018-03-06T16:50:32.236Z,189.97
2018-03-06T16:52:59.982Z,192.97
2018-03-06T16:55:27.683Z,178.40
2018-03-06T16:57:56.139Z,182.37
2018-03-06T17:00:23.860Z,167.30
2018-03-06T17:02:51.538Z,170.33
2018-03-06T17:05:19.232Z,177.23
2018-03-06T17:07:46.890Z,180.03
2018-03-06T17:10:14.617Z,171.03
2018-03-06T17:12:42.320Z,173.33
2018-03-06T17:15:10.744Z,172.07
2018-03-06T17:17:38.408Z,179.03
2018-03-06T17:20:06.132Z,165.17
2018-03-06T17:22:34.586Z,168.80
2018-03-06T17:25:02.288Z,177.97
2018-03-06T17:27:30.018Z,169.97
2018-03-06T17:29:58.316Z,172.47
2018-03-06T17:32:25.999Z,167.93
2018-03-06T17:34:53.729Z,187.83
2018-03-06T17:37:22.247Z,179.63
2018-03-06T17:39:49.990Z,178.20
2018-03-06T17:42:18.485Z,191.83
2018-03-06T17:44:46.164Z,184.87
2018-03-06T17:47:13.839Z,193.80
2018-03-06T17:49:41.612Z,171.57
2018-03-06T17:52:09.505Z,173.63
2018-03-06T17:54:37.191Z,178.73
2018-03-06T17:57:05.693Z,174.60
2018-03-06T17:59:33.383Z,172.50
2018-03-06T18:02:01.113Z,179.83
2018-03-06T18:04:29.674Z,186.27
2018-03-06T18:06:57.389Z,179.17
2018-03-06T18:09:25.124Z,164.63
2018-03-06T18:11:52.860Z,167.67
2018-03-06T18:14:20.541Z,173.23
2018-03-06T18:16:48.238Z,190.60
2018-03-06T18:19:15.965Z,179.83
2018-03-06T18:21:43.680Z,177.27
2018-03-06T18:24:12.168Z,192.57
2018-03-06T18:26:39.886Z,185.00
2018-03-06T18:29:07.582Z,158.93
2018-03-06T18:31:36.045Z,176.57
2018-03-06T18:34:04.550Z,171.13
2018-03-06T18:36:32.248Z,174.60
2018-03-06T18:38:59.990Z,168.50
2018-03-06T18:41:27.735Z,165.33
2018-03-06T18:43:55.384Z,148.73
2018-03-06T18:46:23.865Z,166.23
2018-03-06T18:48:52.333Z,158.40
2018-03-06T18:51:20.778Z,162.67
2018-03-06T18:53:48.512Z,171.73
2018-03-06T18:56:16.252Z,176.43
2018-03-06T18:58:44.026Z,163.93
2018-03-06T19:04:29.344Z,172.20
2018-03-06T19:07:07.108Z,171.47
2018-03-06T19:09:34.918Z,170.17
2018-03-06T19:12:02.603Z,174.43
2018-03-06T19:14:31.137Z,168.10
2018-03-06T19:16:58.867Z,157.97
2018-03-06T19:19:27.526Z,181.57
2018-03-06T19:21:55.433Z,160.23
2018-03-06T19:24:23.173Z,166.70
2018-03-06T19:26:51.645Z,174.30
2018-03-06T19:32:40.421Z,175.10
2018-03-06T19:38:24.084Z,166.47
2018-03-06T19:40:55.645Z,143.43
2018-03-06T19:43:29.535Z,155.23
2018-03-06T19:45:57.222Z,160.27
2018-03-06T19:48:24.948Z,155.43
2018-03-06T19:50:53.452Z,165.33
2018-03-06T19:53:21.274Z,163.80
2018-03-06T19:55:49.199Z,154.20
2018-03-06T19:58:16.914Z,160.27
2018-03-06T20:00:44.652Z,171.20
2018-03-06T20:03:12.323Z,158.73
2018-03-06T20:05:39.987Z,146.90
2018-03-06T20:08:07.664Z,149.60
2018-03-06T20:10:36.116Z,152.33
2018-03-06T20:13:04.555Z,196.47
2018-03-06T20:15:32.254Z,201.97
2018-03-06T20:17:59.942Z,186.13
2018-03-06T20:20:28.404Z,179.53
2018-03-06T20:22:56.072Z,176.63
2018-03-06T20:25:29.564Z,179.23
2018-03-06T20:27:57.243Z,191.07
2018-03-06T20:30:30.545Z,154.23
2018-03-06T20:33:03.852Z,165.87
2018-03-06T20:35:31.996Z,190.63
2018-03-06T20:37:59.688Z,194.87
2018-03-06T20:40:33.207Z,170.30
2018-03-06T20:43:01.111Z,172.73
2018-03-06T20:48:28.631Z,167.53
2018-03-06T20:50:56.383Z,162.03
2018-03-06T20:53:29.645Z,182.63
2018-03-06T20:55:58.276Z,161.93
2018-03-06T20:58:26.768Z,177.77
2018-03-06T21:00:54.511Z,238.77
2018-03-06T21:03:22.228Z,161.87
2018-03-06T21:05:50.732Z,175.73
2018-03-06T21:08:18.412Z,158.77
2018-03-06T21:10:46.125Z,151.70
2018-03-06T21:13:13.803Z,139.50
2018-03-06T21:15:42.211Z,153.90
2018-03-06T21:18:09.891Z,160.07
2018-03-06T21:20:37.575Z,140.67
2018-03-06T21:23:05.223Z,149.13
2018-03-06T21:25:34.207Z,150.73
2018-03-06T21:28:01.913Z,128.20
2018-03-06T21:30:30.358Z,154.33
2018-03-06T21:32:58.044Z,145.87
2018-03-06T21:35:25.757Z,127.40
2018-03-06T21:37:53.566Z,122.50
2018-03-06T21:40:22.165Z,128.10
2018-03-06T21:42:50.865Z,115.43
2018-03-06T21:45:19.150Z,119.83
2018-03-06T21:47:47.177Z,112.17
2018-03-06T21:50:16.089Z,102.30
2018-03-06T21:52:44.043Z,108.13
2018-03-06T21:55:12.292Z,103.47
2018-03-06T21:57:40.423Z,104.77
2018-03-06T22:00:08.306Z,88.57
2018-03-06T22:02:36.236Z,108.60
2018-03-06T22:05:04.196Z,100.23
2018-03-06T22:07:32.723Z,92.27
2018-03-06T22:10:00.492Z,92.47
2018-03-06T22:12:28.304Z,93.17
2018-03-06T22:14:56.440Z,91.00
2018-03-06T22:17:24.355Z,89.90
2018-03-06T22:19:52.180Z,88.00
2018-03-06T22:22:21.358Z,86.47
2018-03-06T22:24:49.098Z,91.73
2018-03-06T22:27:17.070Z,71.10
2018-03-06T22:29:44.840Z,84.10
2018-03-06T22:32:12.724Z,78.30
2018-03-06T22:34:40.589Z,84.83
2018-03-06T22:37:08.547Z,71.40
2018-03-06T22:39:36.367Z,80.40
2018-03-06T22:42:04.276Z,78.37
2018-03-06T22:44:32.395Z,78.83
2018-03-06T22:47:00.260Z,74.60
2018-03-06T22:49:28.207Z,67.13
2018-03-06T22:51:56.753Z,68.93
2018-03-06T22:54:25.889Z,71.57
2018-03-06T22:56:53.587Z,62.10
2018-03-06T22:59:21.418Z,65.70
2018-03-06T23:01:49.065Z,71.63
2018-03-06T23:04:17.524Z,63.97
2018-03-06T23:06:45.150Z,63.43
2018-03-06T23:09:12.812Z,57.13
2018-03-06T23:11:40.476Z,64.10
2018-03-06T23:14:08.112Z,60.93
2018-03-06T23:16:35.776Z,59.20
2018-03-06T23:19:04.196Z,54.83
2018-03-06T23:21:31.837Z,62.23
2018-03-06T23:23:59.491Z,58.80
2018-03-06T23:26:27.152Z,55.60
2018-03-06T23:28:54.769Z,65.40
2018-03-06T23:31:23.200Z,55.33
2018-03-06T23:33:50.847Z,60.03
2018-03-06T23:36:18.748Z,59.07
2018-03-06T23:38:46.411Z,55.10
2018-03-06T23:41:14.308Z,59.67
2018-03-06T23:43:42.072Z,57.63
2018-03-06T23:46:09.908Z,47.30
2018-03-06T23:48:38.365Z,54.93
2018-03-06T23:51:05.975Z,53.07
2018-03-06T23:53:34.516Z,53.50
2018-03-06T23:56:02.166Z,48.77
2018-03-06T23:58:29.914Z,46.40
